createdAt,value
2022-10-08T00:01:34.989Z,1.30
2022-10-08T00:04:03.509Z,1.20
2022-10-08T00:06:32.772Z,1.20
2022-10-08T00:09:05.502Z,1.08
2022-10-08T00:11:38.721Z,1.23
2022-10-08T00:14:07.380Z,1.17
2022-10-08T00:16:41.172Z,1.02
2022-10-08T00:19:13.050Z,2.03
2022-10-08T00:21:43.313Z,1.33
2022-10-08T00:24:16.251Z,1.20
2022-10-08T00:26:44.787Z,1.23
2022-10-08T00:29:14.687Z,1.13
2022-10-08T00:31:45.719Z,0.75
2022-10-08T00:34:16.355Z,1.35
2022-10-08T00:36:44.369Z,1.50
2022-10-08T00:39:17.005Z,1.33
2022-10-08T00:41:46.907Z,1.15
2022-10-08T00:44:54.091Z,1.92
2022-10-08T00:47:39.055Z,1.63
2022-10-08T00:50:20.860Z,1.38
2022-10-08T00:52:54.004Z,1.00
2022-10-08T00:55:23.714Z,1.00
2022-10-08T00:57:52.320Z,1.17
2022-10-08T01:00:25.069Z,0.88
2022-10-08T01:02:53.322Z,1.30
2022-10-08T01:06:06.074Z,1.17
2022-10-08T01:08:42.398Z,0.82
2022-10-08T01:11:41.609Z,1.60
2022-10-08T01:14:31.465Z,1.52
2022-10-08T01:16:59.419Z,1.65
2022-10-08T01:19:51.766Z,2.03
2022-10-08T01:23:16.243Z,1.63
2022-10-08T01:25:44.186Z,2.13
2022-10-08T01:28:25.614Z,1.58
2022-10-08T01:31:14.769Z,1.90
2022-10-08T01:33:52.064Z,1.80
2022-10-08T01:36:21.754Z,1.65
2022-10-08T01:38:55.307Z,1.80
2022-10-08T01:41:26.251Z,1.60
2022-10-08T01:44:02.680Z,2.00
2022-10-08T01:46:32.230Z,1.55
2022-10-08T01:49:08.366Z,1.88
2022-10-08T01:51:53.349Z,2.08
2022-10-08T01:54:23.784Z,1.60
2022-10-08T01:56:54.081Z,2.00
2022-10-08T01:59:27.104Z,1.40
2022-10-08T02:02:10.210Z,1.40
2022-10-08T02:04:38.087Z,2.00
2022-10-08T02:07:10.364Z,1.52
2022-10-08T02:09:44.247Z,2.60
2022-10-08T02:12:12.494Z,2.30
2022-10-08T02:17:36.134Z,2.05
2022-10-08T02:20:30.574Z,1.67
2022-10-08T02:23:15.340Z,2.30
2022-10-08T02:26:04.093Z,1.67
2022-10-08T02:28:51.953Z,1.80
2022-10-08T02:34:28.996Z,2.42
2022-10-08T02:37:29.577Z,2.00
2022-10-08T02:40:08.388Z,1.83
2022-10-08T02:42:37.945Z,2.35
2022-10-08T02:45:11.730Z,2.05
2022-10-08T02:47:42.361Z,1.85
2022-10-08T02:50:17.908Z,1.80
2022-10-08T02:52:47.558Z,2.83
2022-10-08T02:55:27.641Z,1.85
2022-10-08T02:58:01.711Z,1.48
2022-10-08T03:00:55.896Z,1.17
2022-10-08T03:03:40.503Z,1.65
2022-10-08T03:06:11.028Z,2.63
2022-10-08T03:08:46.844Z,2.10
2022-10-08T03:11:15.086Z,1.20
2022-10-08T03:16:16.809Z,1.77
2022-10-08T03:18:46.045Z,1.65
2022-10-08T03:21:15.083Z,1.55
2022-10-08T03:23:43.058Z,2.42
2022-10-08T03:26:10.509Z,2.03
2022-10-08T03:28:38.148Z,1.92
2022-10-08T03:31:06.528Z,2.05
2022-10-08T03:33:35.182Z,1.60
2022-10-08T03:36:03.050Z,1.90
2022-10-08T03:38:30.940Z,1.85
2022-10-08T03:40:59.530Z,2.40
2022-10-08T03:43:34.351Z,1.58
2022-10-08T03:46:02.776Z,1.45
2022-10-08T03:48:31.047Z,1.85
2022-10-08T03:51:11.533Z,1.58
2022-10-08T03:53:41.269Z,2.40
2022-10-08T03:56:12.700Z,1.65
2022-10-08T03:58:41.052Z,2.47
2022-10-08T04:01:15.170Z,2.00
2022-10-08T04:03:45.547Z,1.42
2022-10-08T04:06:13.606Z,2.55
2022-10-08T04:08:41.580Z,2.22
2022-10-08T04:11:12.877Z,2.58
2022-10-08T04:13:41.213Z,1.77
2022-10-08T04:16:17.216Z,1.63
2022-10-08T04:18:45.901Z,1.00
2022-10-08T04:21:15.978Z,2.33
2022-10-08T04:23:44.563Z,1.95
2022-10-08T04:26:14.070Z,1.92
2022-10-08T04:28:47.245Z,1.60
2022-10-08T04:31:17.899Z,1.10
2022-10-08T04:33:47.021Z,1.80
2022-10-08T04:36:17.376Z,2.28
2022-10-08T04:38:45.667Z,2.78
2022-10-08T04:41:19.178Z,2.38
2022-10-08T04:43:47.190Z,2.08
2022-10-08T04:46:17.775Z,1.85
2022-10-08T04:48:51.196Z,2.63
2022-10-08T04:51:19.718Z,1.58
2022-10-08T04:53:47.791Z,2.00
2022-10-08T04:56:19.204Z,1.65
2022-10-08T04:58:47.523Z,2.00
2022-10-08T05:01:17.914Z,1.60
2022-10-08T05:03:48.166Z,2.25
2022-10-08T05:06:18.090Z,1.90
2022-10-08T05:08:46.268Z,1.55
2022-10-08T05:11:14.498Z,2.00
2022-10-08T05:13:42.600Z,2.38
2022-10-08T05:16:13.575Z,2.35
2022-10-08T05:18:42.207Z,1.73
2022-10-08T05:21:15.015Z,2.03
2022-10-08T05:23:43.031Z,1.75
2022-10-08T05:26:19.654Z,1.63
2022-10-08T05:28:48.707Z,2.00
2022-10-08T05:31:16.787Z,1.58
2022-10-08T05:33:44.808Z,1.70
2022-10-08T05:36:22.823Z,1.88
2022-10-08T05:41:17.961Z,2.28
2022-10-08T05:43:46.135Z,2.35
2022-10-08T05:46:14.631Z,1.20
2022-10-08T05:48:43.110Z,1.55
2022-10-08T05:51:11.101Z,1.63
2022-10-08T05:53:40.272Z,2.40
2022-10-08T05:56:10.265Z,2.30
2022-10-08T05:58:39.619Z,1.45
2022-10-08T06:01:13.012Z,1.50
2022-10-08T06:03:41.263Z,2.03
2022-10-08T06:08:38.230Z,2.25
2022-10-08T06:11:06.903Z,1.80
2022-10-08T06:13:35.608Z,1.73
2022-10-08T06:16:09.756Z,1.77
2022-10-08T06:18:42.093Z,2.15
2022-10-08T06:21:12.101Z,2.10
2022-10-08T06:23:44.933Z,2.25
2022-10-08T06:26:12.957Z,2.55
2022-10-08T06:28:40.854Z,2.22
2022-10-08T06:31:08.634Z,1.90
2022-10-08T06:33:36.765Z,2.38
2022-10-08T06:36:17.344Z,2.45
2022-10-08T06:38:59.562Z,1.90
2022-10-08T06:41:30.273Z,4.65
2022-10-08T06:43:58.265Z,3.00
2022-10-08T06:46:26.923Z,2.60
2022-10-08T06:48:54.502Z,1.60
2022-10-08T06:51:22.156Z,1.85
2022-10-08T06:53:55.680Z,2.40
2022-10-08T06:56:24.971Z,1.20
2022-10-08T06:58:52.914Z,1.67
2022-10-08T07:01:30.324Z,1.80
2022-10-08T07:04:01.285Z,2.00
2022-10-08T07:06:29.438Z,1.40
2022-10-08T07:08:59.471Z,1.85
2022-10-08T07:11:28.638Z,2.03
2022-10-08T07:13:56.868Z,2.15
2022-10-08T07:16:26.509Z,2.10
2022-10-08T07:18:56.551Z,2.03
2022-10-08T07:21:24.778Z,1.60
2022-10-08T07:26:23.181Z,2.08
2022-10-08T07:28:54.586Z,1.48
2022-10-08T07:31:24.967Z,1.85
2022-10-08T07:33:52.987Z,1.30
2022-10-08T07:36:22.477Z,2.35
2022-10-08T07:38:58.347Z,1.88
2022-10-08T07:41:27.038Z,1.63
2022-10-08T07:43:58.521Z,2.15
2022-10-08T07:46:27.630Z,2.20
2022-10-08T07:48:56.896Z,1.33
2022-10-08T07:51:26.169Z,2.08
2022-10-08T07:53:53.792Z,1.83
2022-10-08T07:58:50.886Z,2.00
2022-10-08T08:01:28.402Z,2.30
2022-10-08T08:04:04.959Z,2.03
2022-10-08T08:06:34.289Z,1.70
2022-10-08T08:09:01.918Z,1.92
2022-10-08T08:11:29.951Z,2.42
2022-10-08T08:18:56.979Z,1.40
2022-10-08T08:21:33.744Z,2.20
2022-10-08T08:24:19.408Z,1.42
2022-10-08T08:26:47.013Z,1.88
2022-10-08T08:29:17.085Z,1.90
2022-10-08T08:31:46.919Z,1.38
2022-10-08T08:34:23.105Z,1.77
2022-10-08T08:36:53.862Z,1.73
2022-10-08T08:39:23.761Z,1.95
2022-10-08T08:42:06.550Z,1.60
2022-10-08T08:44:40.816Z,1.50
2022-10-08T08:47:20.447Z,2.75
2022-10-08T08:49:51.623Z,2.38
2022-10-08T08:52:25.122Z,1.85
2022-10-08T08:54:54.778Z,1.92
2022-10-08T08:57:22.757Z,1.80
2022-10-08T08:59:55.264Z,2.22
2022-10-08T09:02:37.571Z,2.75
2022-10-08T09:05:12.823Z,1.77
2022-10-08T09:07:48.235Z,1.80
2022-10-08T09:10:34.362Z,2.08
2022-10-08T09:13:02.838Z,2.15
2022-10-08T09:15:34.959Z,2.22
2022-10-08T09:18:04.527Z,2.30
2022-10-08T09:20:34.727Z,1.60
2022-10-08T09:23:17.114Z,1.80
2022-10-08T09:25:50.082Z,1.88
2022-10-08T09:28:56.602Z,1.83
2022-10-08T09:31:39.542Z,2.10
2022-10-08T09:34:13.421Z,1.95
2022-10-08T09:36:47.952Z,1.98
2022-10-08T09:39:31.230Z,1.90
2022-10-08T09:42:07.887Z,2.08
2022-10-08T09:44:41.483Z,1.80
2022-10-08T09:47:21.186Z,2.38
2022-10-08T09:50:19.344Z,1.83
2022-10-08T09:52:54.335Z,2.28
2022-10-08T09:57:56.756Z,1.77
2022-10-08T10:00:30.410Z,2.80
2022-10-08T10:03:00.086Z,1.60
2022-10-08T10:05:31.016Z,1.65
2022-10-08T10:07:59.342Z,1.63
2022-10-08T10:10:29.569Z,1.90
2022-10-08T10:13:09.864Z,1.58
2022-10-08T10:15:46.808Z,2.17
2022-10-08T10:18:19.279Z,2.60
2022-10-08T10:21:00.395Z,1.60
2022-10-08T10:23:37.916Z,2.50
2022-10-08T10:26:29.544Z,1.85
2022-10-08T10:29:08.600Z,2.35
2022-10-08T10:31:45.604Z,1.98
2022-10-08T10:34:16.161Z,2.03
2022-10-08T10:36:53.990Z,1.65
2022-10-08T10:39:22.068Z,2.20
2022-10-08T10:44:55.024Z,1.67
2022-10-08T10:47:29.620Z,1.92
2022-10-08T10:50:01.514Z,1.98
2022-10-08T10:52:41.202Z,1.55
2022-10-08T10:55:21.970Z,1.98
2022-10-08T10:58:14.658Z,1.17
2022-10-08T11:01:02.719Z,1.27
2022-10-08T11:04:04.073Z,1.35
2022-10-08T11:06:32.125Z,1.75
2022-10-08T11:09:39.104Z,0.93
2022-10-08T11:12:25.208Z,1.75
2022-10-08T11:15:18.660Z,1.30
2022-10-08T11:18:15.045Z,2.00
2022-10-08T11:21:04.534Z,1.50
2022-10-08T11:23:32.181Z,1.55
2022-10-08T11:26:23.201Z,1.38
2022-10-08T11:28:51.040Z,1.67
2022-10-08T11:31:37.011Z,1.48
2022-10-08T11:34:09.475Z,1.05
2022-10-08T11:36:43.287Z,2.17
2022-10-08T11:39:20.913Z,1.33
2022-10-08T11:41:57.752Z,2.05
2022-10-08T11:44:26.815Z,1.80
2022-10-08T11:46:54.761Z,1.80
2022-10-08T11:49:23.023Z,1.17
2022-10-08T11:51:54.313Z,1.80
2022-10-08T11:54:31.552Z,1.30
2022-10-08T11:57:23.218Z,1.83
2022-10-08T12:00:06.904Z,1.33
2022-10-08T12:02:44.110Z,1.77
2022-10-08T12:05:24.141Z,1.48
2022-10-08T12:08:00.179Z,1.38
2022-10-08T12:10:29.799Z,1.65
2022-10-08T12:13:01.679Z,1.80
2022-10-08T12:15:33.285Z,1.42
2022-10-08T12:18:01.127Z,1.60
2022-10-08T12:20:32.384Z,0.80
2022-10-08T12:23:00.455Z,1.55
2022-10-08T12:26:02.674Z,1.60
2022-10-08T12:28:32.383Z,2.63
2022-10-08T12:31:02.337Z,1.50
2022-10-08T12:33:31.002Z,1.48
2022-10-08T12:36:14.767Z,1.50
2022-10-08T12:39:00.596Z,1.25
2022-10-08T12:41:45.877Z,1.60
2022-10-08T12:44:45.155Z,1.35
2022-10-08T12:47:18.793Z,1.52
2022-10-08T12:50:24.079Z,1.60
2022-10-08T12:52:52.708Z,2.22
2022-10-08T12:55:24.678Z,1.85
2022-10-08T12:57:53.837Z,1.00
2022-10-08T13:00:24.568Z,1.55
2022-10-08T13:03:07.611Z,1.27
2022-10-08T13:05:37.671Z,1.02
2022-10-08T13:08:27.398Z,1.50
2022-10-08T13:10:56.518Z,1.33
2022-10-08T13:13:43.034Z,2.00
2022-10-08T13:16:12.740Z,1.17
2022-10-08T13:18:57.718Z,1.40
2022-10-08T13:21:32.114Z,1.00
2022-10-08T13:24:27.526Z,2.22
2022-10-08T13:26:56.874Z,1.20
2022-10-08T13:29:26.444Z,1.25
2022-10-08T13:32:14.165Z,1.35
2022-10-08T13:34:46.889Z,1.08
2022-10-08T13:37:23.003Z,1.30
2022-10-08T13:40:00.353Z,1.13
2022-10-08T13:42:34.641Z,1.20
2022-10-08T13:45:05.539Z,1.50
2022-10-08T13:47:33.982Z,1.00
2022-10-08T13:50:02.629Z,1.35
2022-10-08T13:52:32.814Z,1.40
2022-10-08T13:55:08.057Z,1.10
2022-10-08T13:57:36.419Z,1.23
2022-10-08T14:00:05.595Z,1.50
2022-10-08T14:02:33.934Z,1.33
2022-10-08T14:05:02.127Z,1.05
2022-10-08T14:07:34.399Z,1.13
2022-10-08T14:10:02.835Z,0.90
2022-10-08T14:12:34.333Z,1.30
2022-10-08T14:15:02.538Z,1.30
2022-10-08T14:17:31.226Z,1.30
2022-10-08T14:19:59.527Z,1.30
2022-10-08T14:22:28.028Z,1.20
2022-10-08T14:24:55.994Z,1.02
2022-10-08T14:29:52.042Z,1.15
2022-10-08T14:37:14.828Z,1.20
2022-10-08T14:39:42.323Z,1.40
2022-10-08T14:42:10.223Z,1.00
2022-10-08T14:44:37.608Z,1.17
2022-10-08T14:47:05.282Z,1.05
2022-10-08T14:49:32.954Z,1.20
2022-10-08T14:52:00.588Z,1.35
2022-10-08T14:54:28.595Z,1.20
2022-10-08T14:56:56.402Z,1.70
2022-10-08T14:59:23.870Z,1.20
2022-10-08T15:01:51.763Z,1.15
2022-10-08T15:06:47.197Z,0.93
2022-10-08T15:09:16.702Z,1.10
2022-10-08T15:11:44.426Z,1.35
2022-10-08T15:14:11.979Z,1.40
2022-10-08T15:16:39.652Z,1.50
2022-10-08T15:21:35.443Z,1.48
2022-10-08T15:24:03.076Z,1.67
2022-10-08T15:26:30.679Z,1.73
2022-10-08T15:31:25.763Z,1.60
2022-10-08T15:33:54.810Z,1.42
2022-10-08T15:36:22.749Z,1.13
2022-10-08T15:41:28.316Z,1.55
2022-10-08T15:43:56.220Z,1.83
2022-10-08T15:46:29.020Z,1.73
2022-10-08T15:48:57.156Z,1.40
2022-10-08T15:51:24.889Z,1.58
2022-10-08T15:56:20.509Z,1.58
2022-10-08T15:58:51.713Z,1.80
2022-10-08T16:01:23.210Z,1.35
2022-10-08T16:03:53.947Z,1.55
2022-10-08T16:06:25.062Z,2.15
2022-10-08T16:08:52.751Z,1.42
2022-10-08T16:11:23.313Z,2.13
2022-10-08T16:16:11.452Z,2.10
2022-10-08T16:18:41.729Z,1.60
2022-10-08T16:21:11.263Z,1.38
2022-10-08T16:23:39.381Z,1.45
2022-10-08T16:26:09.050Z,1.58
2022-10-08T16:28:39.640Z,1.63
2022-10-08T16:31:08.690Z,1.30
2022-10-08T16:33:36.567Z,1.38
2022-10-08T16:36:06.656Z,1.40
2022-10-08T16:38:35.266Z,1.30
2022-10-08T16:41:19.843Z,1.40
2022-10-08T16:43:49.585Z,1.20
2022-10-08T16:46:28.729Z,1.27
2022-10-08T16:49:04.194Z,1.70
2022-10-08T16:51:37.339Z,1.40
2022-10-08T16:54:08.226Z,1.30
2022-10-08T16:56:37.997Z,1.50
2022-10-08T16:59:08.560Z,1.50
2022-10-08T17:01:38.344Z,1.30
2022-10-08T17:04:07.605Z,1.30
2022-10-08T17:06:35.324Z,1.65
2022-10-08T17:09:04.329Z,1.10
2022-10-08T17:11:33.153Z,1.42
2022-10-08T17:14:01.549Z,1.30
2022-10-08T17:16:30.375Z,1.45
2022-10-08T17:18:59.907Z,1.30
2022-10-08T17:21:28.617Z,1.50
2022-10-08T17:24:00.227Z,1.85
2022-10-08T17:26:29.031Z,1.75
2022-10-08T17:28:57.490Z,1.52
2022-10-08T17:31:31.868Z,1.13
2022-10-08T17:34:00.282Z,1.40
2022-10-08T17:36:32.542Z,1.23
2022-10-08T17:39:01.836Z,1.50
2022-10-08T17:41:31.627Z,1.50
2022-10-08T17:44:04.661Z,1.45
2022-10-08T17:46:34.831Z,1.60
2022-10-08T17:49:03.343Z,1.55
2022-10-08T17:51:31.291Z,1.48
2022-10-08T17:56:31.775Z,1.58
2022-10-08T17:59:00.055Z,1.88
2022-10-08T18:01:33.390Z,1.50
2022-10-08T18:04:03.376Z,1.80
2022-10-08T18:06:31.842Z,1.63
2022-10-08T18:09:01.658Z,1.92
2022-10-08T18:11:34.079Z,1.60
2022-10-08T18:14:04.185Z,2.00
2022-10-08T18:16:32.321Z,1.48
2022-10-08T18:21:33.264Z,1.50
2022-10-08T18:24:01.115Z,1.40
2022-10-08T18:26:32.374Z,1.73
2022-10-08T18:29:01.635Z,2.60
2022-10-08T18:31:31.803Z,1.85
2022-10-08T18:34:02.242Z,1.48
2022-10-08T18:36:32.247Z,2.25
2022-10-08T18:39:05.856Z,1.45
2022-10-08T18:41:36.806Z,2.53
2022-10-08T18:44:06.008Z,2.08
2022-10-08T18:46:35.700Z,2.00
2022-10-08T18:49:04.816Z,2.08
2022-10-08T18:51:33.584Z,1.60
2022-10-08T18:54:02.319Z,1.73
2022-10-08T18:56:34.344Z,2.70
2022-10-08T18:59:03.740Z,3.55
2022-10-08T19:01:37.699Z,3.13
2022-10-08T19:04:07.869Z,3.58
2022-10-08T19:06:43.093Z,3.65
2022-10-08T19:09:13.855Z,3.58
2022-10-08T19:11:45.185Z,3.88
2022-10-08T19:14:15.090Z,4.15
2022-10-08T19:16:43.470Z,4.30
2022-10-08T19:19:20.014Z,3.80
2022-10-08T19:21:48.417Z,4.30
2022-10-08T19:24:17.592Z,3.67
2022-10-08T19:26:45.982Z,4.65
2022-10-08T19:31:42.937Z,4.90
2022-10-08T19:34:13.355Z,4.53
2022-10-08T19:36:41.663Z,5.60
2022-10-08T19:41:42.487Z,5.10
2022-10-08T19:44:10.178Z,5.07
2022-10-08T19:46:38.441Z,5.22
2022-10-08T19:51:34.488Z,7.05
2022-10-08T19:54:02.468Z,7.70
2022-10-08T19:56:31.236Z,4.57
2022-10-08T19:58:59.142Z,8.98
2022-10-08T20:01:29.376Z,19.83
2022-10-08T20:03:57.970Z,12.57
2022-10-08T20:06:26.696Z,9.13
2022-10-08T20:08:55.697Z,6.72
2022-10-08T20:11:24.173Z,7.22
2022-10-08T20:13:52.647Z,7.55
2022-10-08T20:16:21.814Z,7.82
2022-10-08T20:18:50.835Z,7.53
2022-10-08T20:21:19.408Z,7.20
2022-10-08T20:23:47.586Z,7.72
2022-10-08T20:28:47.493Z,7.63
2022-10-08T20:31:23.860Z,10.20
2022-10-08T20:34:05.550Z,9.77
2022-10-08T20:36:33.515Z,8.00
2022-10-08T20:39:01.714Z,7.75
2022-10-08T20:41:31.135Z,7.93
2022-10-08T20:44:03.361Z,8.05
2022-10-08T20:46:32.714Z,7.43
2022-10-08T20:49:00.811Z,7.10
2022-10-08T20:51:29.802Z,6.95
2022-10-08T20:54:00.446Z,8.45
2022-10-08T20:56:29.823Z,9.25
2022-10-08T20:58:58.413Z,8.23
2022-10-08T21:01:27.797Z,7.03
2022-10-08T21:03:55.981Z,7.55
2022-10-08T21:08:56.259Z,8.82
2022-10-08T21:11:26.557Z,7.78
2022-10-08T21:13:54.813Z,8.73
2022-10-08T21:16:25.189Z,8.05
2022-10-08T21:18:55.466Z,9.00
2022-10-08T21:21:23.748Z,8.05
2022-10-08T21:26:19.889Z,9.15
2022-10-08T21:28:49.508Z,10.30
2022-10-08T21:31:18.050Z,11.57
2022-10-08T21:33:47.833Z,8.90
2022-10-08T21:36:21.307Z,8.95
2022-10-08T21:38:49.726Z,8.43
2022-10-08T21:41:19.221Z,9.02
2022-10-08T21:43:56.701Z,9.38
2022-10-08T21:46:28.294Z,9.52
2022-10-08T21:48:58.667Z,9.35
2022-10-08T21:51:27.902Z,8.43
2022-10-08T21:53:57.779Z,10.55
2022-10-08T21:56:27.970Z,8.80
2022-10-08T21:58:59.033Z,9.02
2022-10-08T22:01:36.036Z,8.73
2022-10-08T22:04:04.080Z,9.20
2022-10-08T22:06:33.769Z,8.90
2022-10-08T22:09:01.606Z,8.82
2022-10-08T22:11:29.492Z,10.27
2022-10-08T22:13:57.356Z,10.95
2022-10-08T22:16:26.143Z,11.20
2022-10-08T22:18:54.170Z,10.32
2022-10-08T22:21:23.050Z,11.52
2022-10-08T22:23:51.989Z,10.45
2022-10-08T22:26:26.883Z,11.50
2022-10-08T22:28:54.464Z,8.68
2022-10-08T22:31:22.635Z,9.65
2022-10-08T22:33:50.346Z,9.27
2022-10-08T22:36:23.663Z,9.30
2022-10-08T22:38:52.202Z,10.48
2022-10-08T22:41:23.704Z,9.90
2022-10-08T22:43:51.508Z,9.25
2022-10-08T22:46:24.820Z,10.77
2022-10-08T22:48:53.169Z,8.80
2022-10-08T22:51:21.850Z,8.40
2022-10-08T22:53:50.045Z,7.80
2022-10-08T22:56:20.065Z,7.65
2022-10-08T22:58:48.887Z,8.13
2022-10-08T23:01:19.087Z,8.05
2022-10-08T23:03:47.647Z,7.93
2022-10-08T23:06:31.878Z,8.50
2022-10-08T23:09:01.903Z,9.05
2022-10-08T23:11:31.839Z,9.43
2022-10-08T23:14:00.688Z,9.38
2022-10-08T23:16:31.074Z,10.93
2022-10-08T23:19:01.749Z,8.63
2022-10-08T23:21:29.876Z,9.43
2022-10-08T23:23:58.711Z,10.52
2022-10-08T23:26:27.346Z,10.57
2022-10-08T23:28:57.450Z,10.07
2022-10-08T23:31:34.641Z,10.15
2022-10-08T23:34:02.982Z,10.60
2022-10-08T23:36:33.803Z,10.88
2022-10-08T23:39:02.001Z,10.43
2022-10-08T23:41:29.564Z,9.05
2022-10-08T23:43:58.681Z,9.68
2022-10-08T23:46:28.576Z,9.13
2022-10-08T23:48:56.920Z,8.98
2022-10-08T23:51:26.346Z,11.55
2022-10-08T23:53:54.262Z,10.75
2022-10-08T23:56:22.032Z,10.63
2022-10-08T23:58:50.074Z,10.07
